Time;durP1;ratioP1;P1;durP2;ratioP2;P2;SDS_P1;SDS_P2;PMS_P1;PMS_P2;Temp;Humidity;BMP_temperature;BMP_pressure;BME280_temperature;BME280_humidity;BME280_pressure;Samples;Min_cycle;Max_cycle;Signal;HPM_P1;HPM_P2
2023/07/21 00:01:22;;;;;;;5.95;5.00;;;;;;;-143.21;58.26;70934.13;5121467;28;20208;-78
2023/07/21 00:03:49;;;;;;;11.25;5.03;;;;;;;-143.21;58.21;70936.09;5114971;28;20324;-78
2023/07/21 00:06:19;;;;;;;7.85;5.43;;;;;;;-143.21;58.62;70938.09;5114334;28;20191;-78
2023/07/21 00:08:46;;;;;;;7.85;4.80;;;;;;;-143.21;58.71;70932.13;5112448;27;20235;-78
2023/07/21 00:11:12;;;;;;;11.82;5.57;;;;;;;-143.21;58.36;70932.13;5112478;28;20276;-78
2023/07/21 00:13:41;;;;;;;9.65;5.28;;;;;;;-143.21;58.64;70928.19;5115197;28;20282;-78
2023/07/21 00:16:08;;;;;;;7.20;4.93;;;;;;;-143.21;58.41;70918.25;5109066;28;20232;-78
2023/07/21 00:18:35;;;;;;;8.95;5.25;;;;;;;-143.21;58.55;70922.22;5112761;28;20200;-79
2023/07/21 00:21:05;;;;;;;9.85;5.20;;;;;;;-143.21;58.68;70922.22;5110357;27;20207;-79
2023/07/21 00:23:32;;;;;;;7.78;4.90;;;;;;;-143.21;58.63;70930.16;5115639;27;20288;-80
2023/07/21 00:26:00;;;;;;;11.50;5.75;;;;;;;-143.21;58.77;70930.16;5120933;27;20211;-79
2023/07/21 00:28:27;;;;;;;8.40;5.20;;;;;;;-143.21;58.87;70926.19;5112438;28;20876;-80
2023/07/21 00:30:56;;;;;;;10.70;5.22;;;;;;;-143.21;59.06;70940.06;5117808;27;20212;-79
2023/07/21 00:33:25;;;;;;;9.98;5.55;;;;;;;-143.21;59.60;70949.97;5113686;27;20204;-78
2023/07/21 00:35:51;;;;;;;12.23;5.85;;;;;;;-143.21;60.21;70965.84;5112074;27;20203;-78
2023/07/21 00:38:18;;;;;;;9.80;5.70;;;;;;;-143.21;60.47;70983.69;5117372;27;20207;-78
2023/07/21 00:40:46;;;;;;;9.18;5.82;;;;;;;-143.21;60.90;70999.53;5116530;27;20200;-78
2023/07/21 00:43:18;;;;;;;8.18;6.00;;;;;;;-143.21;60.97;70999.53;5113884;27;20211;-78
2023/07/21 00:45:46;;;;;;;13.30;8.88;;;;;;;-143.21;61.04;70997.56;5112153;27;20658;-78
2023/07/21 00:48:17;;;;;;;13.55;10.10;;;;;;;-143.21;60.91;70993.59;5117441;27;20291;-78
2023/07/21 00:50:45;;;;;;;19.40;10.00;;;;;;;-143.21;60.92;70991.63;5121090;27;20235;-78
2023/07/21 00:53:13;;;;;;;15.27;9.27;;;;;;;-143.21;61.24;70987.66;5115148;27;20361;-78
2023/07/21 00:55:42;;;;;;;22.85;13.93;;;;;;;-143.21;61.11;70969.81;5119392;27;20211;-78
2023/07/21 00:58:09;;;;;;;52.88;39.60;;;;;;;-143.21;60.82;70957.91;5112842;27;20228;-76
2023/07/21 01:00:37;;;;;;;34.65;29.38;;;;;;;-143.21;60.72;70948.00;5123197;27;20744;-79
2023/07/21 01:03:05;;;;;;;38.53;28.90;;;;;;;-143.21;60.71;70940.06;5112212;27;20583;-77
2023/07/21 01:05:38;;;;;;;31.13;21.17;;;;;;;-143.21;60.79;70934.13;5122695;27;20302;-77
2023/07/21 01:08:07;;;;;;;24.38;17.92;;;;;;;-143.21;60.99;70944.03;5111940;27;20224;-77
2023/07/21 01:10:36;;;;;;;27.23;20.52;;;;;;;-143.21;60.91;70940.06;5115675;27;20324;-77
2023/07/21 01:13:03;;;;;;;18.55;13.40;;;;;;;-143.21;61.09;70938.09;5115453;27;20268;-77
2023/07/21 01:15:32;;;;;;;9.52;6.57;;;;;;;-143.21;61.02;70948.00;5114927;27;20201;-78
2023/07/21 01:17:59;;;;;;;12.55;5.82;;;;;;;-143.21;61.10;70955.94;5115226;27;20238;-78
2023/07/21 01:20:29;;;;;;;9.82;6.28;;;;;;;-143.21;61.46;70963.84;5111419;27;20211;-78
2023/07/21 01:23:03;;;;;;;9.50;6.05;;;;;;;-143.21;61.01;70959.91;5114922;27;20231;-78
2023/07/21 01:25:33;;;;;;;12.10;6.32;;;;;;;-143.21;60.89;70949.97;5116597;27;20900;-78
2023/07/21 01:28:03;;;;;;;12.13;7.13;;;;;;;-143.21;61.09;70944.03;5111678;27;20211;-77
2023/07/21 01:30:31;;;;;;;15.65;8.13;;;;;;;-143.21;61.19;70944.03;5111597;27;20206;-78
2023/07/21 01:32:58;;;;;;;14.13;8.70;;;;;;;-143.21;61.19;70942.06;5114729;27;20219;-77
2023/07/21 01:35:28;;;;;;;9.63;7.72;;;;;;;-143.21;61.57;70944.03;5111214;27;20207;-77
2023/07/21 01:37:57;;;;;;;12.65;6.88;;;;;;;-143.21;61.50;70948.00;5110671;27;20242;-77
2023/07/21 01:40:26;;;;;;;10.95;7.65;;;;;;;-143.21;61.67;70955.94;5112960;27;20215;-78
2023/07/21 01:42:54;;;;;;;13.75;6.85;;;;;;;-143.21;62.00;70965.84;5114239;27;20289;-78
2023/07/21 01:45:21;;;;;;;8.82;6.70;;;;;;;-143.21;61.91;70979.72;5112713;27;20577;-78
2023/07/21 01:47:48;;;;;;;13.38;6.47;;;;;;;-143.21;62.24;70989.63;5112912;27;20196;-77
2023/07/21 01:50:17;;;;;;;9.38;6.30;;;;;;;-143.21;62.23;71001.53;5111226;27;20715;-78
2023/07/21 01:52:45;;;;;;;12.52;6.20;;;;;;;-143.21;62.65;70999.53;5114539;27;20248;-79
2023/07/21 01:55:19;;;;;;;11.27;6.03;;;;;;;-143.21;62.91;71011.44;5118248;27;20199;-79
2023/07/21 01:57:56;;;;;;;10.45;6.95;;;;;;;-143.21;63.13;71035.22;5112894;27;20694;-80
2023/07/21 02:00:27;;;;;;;14.38;7.07;;;;;;;-143.21;63.08;71041.16;5114793;27;20207;-78
2023/07/21 02:02:54;;;;;;;10.23;6.40;;;;;;;-143.21;63.78;71066.94;5120408;27;20199;-79
2023/07/21 02:05:23;;;;;;;9.02;6.55;;;;;;;-143.21;64.36;71082.81;5114025;27;20200;-79
2023/07/21 02:07:51;;;;;;;9.98;6.70;;;;;;;-143.21;64.76;71096.69;5115169;27;20196;-78
2023/07/21 02:10:18;;;;;;;10.70;6.40;;;;;;;-143.21;65.01;71098.66;5114486;27;20206;-78
2023/07/21 02:12:44;;;;;;;13.35;6.70;;;;;;;-143.21;64.97;71102.63;5113664;27;20200;-79
2023/07/21 02:15:13;;;;;;;12.75;7.00;;;;;;;-143.21;64.76;71104.59;5113735;27;20199;-79
2023/07/21 02:17:41;;;;;;;10.65;6.70;;;;;;;-143.21;64.51;71092.72;5113733;27;20269;-77
2023/07/21 02:20:09;;;;;;;8.95;6.40;;;;;;;-143.21;64.57;71092.72;5107452;27;20243;-80
2023/07/21 02:22:37;;;;;;;6.93;5.55;;;;;;;-143.21;64.52;71086.75;5118605;27;20199;-81
2023/07/21 02:25:05;;;;;;;10.05;6.45;;;;;;;-143.21;64.49;71094.69;5111059;27;20279;-81
2023/07/21 02:27:33;;;;;;;8.43;6.40;;;;;;;-143.21;64.74;71098.66;5117055;27;20207;-80
2023/07/21 02:30:01;;;;;;;8.98;6.60;;;;;;;-143.21;65.17;71108.56;5110926;27;20208;-80
2023/07/21 02:32:29;;;;;;;14.32;6.80;;;;;;;-143.21;65.25;71112.53;5110725;27;20208;-80
2023/07/21 02:34:58;;;;;;;10.20;6.95;;;;;;;-143.21;65.59;71120.47;5110083;28;20216;-79
2023/07/21 02:37:25;;;;;;;10.93;7.35;;;;;;;-143.21;65.26;71110.56;5112053;27;20220;-79
2023/07/21 02:39:52;;;;;;;10.82;7.22;;;;;;;-143.21;65.26;71112.53;5115061;27;20654;-79
2023/07/21 02:42:19;;;;;;;13.93;8.05;;;;;;;-143.21;65.17;71116.50;5115595;27;20558;-79
2023/07/21 02:44:46;;;;;;;13.32;7.63;;;;;;;-143.21;65.58;71120.47;5117119;27;20208;-78
2023/07/21 02:47:16;;;;;;;11.07;7.80;;;;;;;-143.21;65.86;71130.38;5114347;27;20192;-78
2023/07/21 02:49:44;;;;;;;9.63;7.85;;;;;;;-143.21;66.18;71152.19;5112425;27;20296;-78
2023/07/21 02:52:11;;;;;;;11.88;8.15;;;;;;;-143.21;66.31;71158.13;5120045;27;20627;-79
2023/07/21 02:54:38;;;;;;;12.52;8.23;;;;;;;-143.21;66.58;71156.16;5117074;27;20208;-79
2023/07/21 02:57:06;;;;;;;13.15;7.35;;;;;;;-143.21;66.90;71164.09;5115402;27;20222;-79
2023/07/21 02:59:34;;;;;;;10.32;7.97;;;;;;;-143.21;67.02;71168.06;5117168;27;20204;-79
2023/07/21 03:02:01;;;;;;;16.65;8.07;;;;;;;-143.21;67.00;71168.06;5110749;27;20207;-79
2023/07/21 03:04:31;;;;;;;12.60;7.30;;;;;;;-143.21;67.11;71166.06;5123490;27;21519;-79
2023/07/21 03:06:59;;;;;;;16.17;8.52;;;;;;;-143.21;67.24;71166.06;5116135;27;20234;-79
2023/07/21 03:09:27;;;;;;;15.65;7.60;;;;;;;-143.21;66.06;71168.06;5112337;27;20644;-79
2023/07/21 03:11:56;;;;;;;10.45;7.13;;;;;;;-143.21;66.68;71170.03;5116212;27;20208;-79
2023/07/21 03:14:23;;;;;;;14.95;7.97;;;;;;;-143.21;66.29;71166.06;5114723;27;20665;-78
2023/07/21 03:16:50;;;;;;;16.58;7.55;;;;;;;-143.21;66.62;71166.06;5107500;27;20192;-79
2023/07/21 03:19:17;;;;;;;13.60;7.72;;;;;;;-143.21;67.03;71154.16;5112496;27;20204;-79
2023/07/21 03:21:44;;;;;;;12.77;7.97;;;;;;;-143.21;66.84;71164.09;5122852;27;20199;-78
2023/07/21 03:24:14;;;;;;;16.13;8.02;;;;;;;-143.21;66.97;71160.13;5109823;27;20200;-78
2023/07/21 03:26:40;;;;;;;13.80;8.10;;;;;;;-143.21;66.90;71160.13;5112786;27;20204;-78
2023/07/21 03:29:07;;;;;;;14.55;8.13;;;;;;;-143.21;66.80;71170.03;5113229;27;20200;-78
2023/07/21 03:31:34;;;;;;;15.55;8.50;;;;;;;-143.21;66.67;71172.00;5105813;27;20204;-78
2023/07/21 03:34:01;;;;;;;13.95;8.02;;;;;;;-143.21;66.73;71175.97;5122434;27;20749;-79
2023/07/21 03:36:28;;;;;;;20.42;7.90;;;;;;;-143.21;66.82;71179.94;5109520;28;20207;-79
2023/07/21 03:38:55;;;;;;;21.20;8.73;;;;;;;-143.21;67.35;71197.78;5113679;28;20223;-79
2023/07/21 03:41:23;;;;;;;13.50;7.78;;;;;;;-143.21;67.61;71193.81;5116457;27;20208;-78
2023/07/21 03:43:50;;;;;;;15.93;8.00;;;;;;;-143.21;68.10;71207.69;5113276;28;20208;-78
2023/07/21 03:46:17;;;;;;;12.65;7.38;;;;;;;-143.21;67.84;71197.78;5116295;28;20291;-78
2023/07/21 03:48:44;;;;;;;16.67;8.07;;;;;;;-143.21;67.52;71191.84;5114162;28;20287;-78
2023/07/21 03:51:11;;;;;;;12.13;8.40;;;;;;;-143.21;67.50;71185.88;5115303;27;20635;-79
2023/07/21 03:53:38;;;;;;;18.95;8.35;;;;;;;-143.21;67.31;71181.94;5109456;28;20287;-79
2023/07/21 03:56:05;;;;;;;12.20;8.40;;;;;;;-143.21;67.07;71187.88;5118123;27;20207;-77
2023/07/21 03:58:34;;;;;;;17.80;8.18;;;;;;;-143.21;67.17;71183.91;5120574;27;20310;-77
2023/07/21 04:01:01;;;;;;;13.27;7.97;;;;;;;-143.21;67.79;71195.81;5116745;27;20203;-78
2023/07/21 04:03:28;;;;;;;13.82;7.80;;;;;;;-143.21;67.83;71207.69;5116031;27;20219;-79
2023/07/21 04:05:55;;;;;;;18.85;8.05;;;;;;;-143.21;67.92;71203.72;5116273;27;20308;-79
2023/07/21 04:08:21;;;;;;;15.55;7.82;;;;;;;-143.21;68.04;71209.69;5113503;27;20675;-79
2023/07/21 04:10:48;;;;;;;11.05;7.60;;;;;;;-143.21;68.06;71215.63;5112904;28;20755;-79
2023/07/21 04:13:15;;;;;;;14.52;7.72;;;;;;;-143.21;68.06;71221.56;5113143;27;20260;-79
2023/07/21 04:15:43;;;;;;;14.90;7.82;;;;;;;-143.21;67.96;71227.53;5120578;27;20237;-78
2023/07/21 04:18:10;;;;;;;11.73;7.72;;;;;;;-143.21;67.91;71217.59;5116025;27;20231;-79
2023/07/21 04:20:37;;;;;;;15.65;8.02;;;;;;;-143.21;67.71;71217.59;5119759;27;20199;-77
2023/07/21 04:23:04;;;;;;;12.65;7.50;;;;;;;-143.21;67.36;71225.53;5120322;27;20196;-78
2023/07/21 04:25:32;;;;;;;18.67;7.88;;;;;;;-143.21;67.24;71223.56;5115878;27;20290;-78
2023/07/21 04:27:59;;;;;;;15.00;7.28;;;;;;;-143.21;67.15;71221.56;5116121;27;20261;-78
2023/07/21 04:30:26;;;;;;;11.65;7.80;;;;;;;-143.21;66.86;71217.59;5115858;27;20218;-78
2023/07/21 04:32:56;;;;;;;10.38;7.10;;;;;;;-143.21;67.00;71211.66;5117662;27;20663;-79
2023/07/21 04:35:23;;;;;;;11.98;7.95;;;;;;;-143.21;67.09;71205.72;5113561;27;20280;-79
2023/07/21 04:37:50;;;;;;;15.27;7.75;;;;;;;-143.21;67.10;71209.69;5114048;27;20223;-79
2023/07/21 04:40:20;;;;;;;13.57;7.00;;;;;;;-143.21;67.21;71217.59;5118520;27;20196;-79
2023/07/21 04:42:47;;;;;;;12.27;7.30;;;;;;;-143.21;67.33;71213.66;5111859;28;20218;-79
2023/07/21 04:45:15;;;;;;;13.50;7.68;;;;;;;-143.21;67.22;71209.69;5115261;27;20685;-79
2023/07/21 04:47:42;;;;;;;12.55;7.82;;;;;;;-143.21;67.30;71209.69;5115707;27;20322;-79
2023/07/21 04:50:10;;;;;;;13.80;7.80;;;;;;;-143.21;67.14;71201.75;5118742;27;20214;-79
2023/07/21 04:52:38;;;;;;;15.65;8.30;;;;;;;-143.21;66.95;71195.81;5117474;28;20196;-78
2023/07/21 04:55:06;;;;;;;12.68;8.00;;;;;;;-143.21;67.23;71199.78;5111402;28;20210;-77
2023/07/21 04:57:34;;;;;;;17.75;8.10;;;;;;;-143.21;67.21;71193.81;5110704;28;20227;-79
2023/07/21 05:00:02;;;;;;;15.32;7.60;;;;;;;-143.21;66.87;71193.81;5121120;28;20242;-78
2023/07/21 05:02:29;;;;;;;15.70;7.88;;;;;;;-143.21;66.61;71183.91;5118470;28;20212;-79
2023/07/21 05:04:58;;;;;;;18.77;8.68;;;;;;;-143.21;66.56;71181.94;5113843;28;21304;-80
2023/07/21 05:07:26;;;;;;;14.80;8.25;;;;;;;-143.21;66.34;71172.00;5116393;28;20208;-80
2023/07/21 05:09:55;;;;;;;14.25;8.40;;;;;;;-143.21;65.83;71164.09;5117777;28;20864;-80
2023/07/21 05:12:25;;;;;;;16.63;8.32;;;;;;;-143.21;65.41;71150.22;5117295;27;20207;-80
2023/07/21 05:14:52;;;;;;;16.40;8.80;;;;;;;-143.21;65.49;71160.13;5117766;28;20282;-79
2023/07/21 05:17:19;;;;;;;12.65;8.45;;;;;;;-143.21;65.85;71177.97;5112042;28;20260;-79
2023/07/21 05:19:45;;;;;;;15.85;8.70;;;;;;;-143.21;66.48;71183.91;5109406;28;20291;-79
2023/07/21 05:22:13;;;;;;;13.13;9.38;;;;;;;-143.21;66.39;71189.84;5111522;28;20235;-79
2023/07/21 05:24:41;;;;;;;15.98;9.65;;;;;;;-143.21;66.61;71195.81;5108778;28;20344;-79
2023/07/21 05:27:08;;;;;;;18.80;9.93;;;;;;;-143.21;67.09;71197.78;5109624;28;20269;-79
2023/07/21 05:29:35;;;;;;;14.68;9.40;;;;;;;-143.21;67.11;71193.81;5110168;28;20208;-79
2023/07/21 05:32:03;;;;;;;17.08;8.93;;;;;;;-143.21;66.71;71191.84;5110067;28;20210;-80
2023/07/21 05:34:30;;;;;;;12.45;8.80;;;;;;;-143.21;66.52;71185.88;5108482;28;20204;-79
2023/07/21 05:36:58;;;;;;;15.40;7.45;;;;;;;-143.21;66.75;71177.97;5107597;28;20226;-78
2023/07/21 05:39:27;;;;;;;14.23;7.43;;;;;;;-143.21;66.53;71170.03;5108407;28;20251;-80
2023/07/21 05:41:57;;;;;;;11.50;7.30;;;;;;;-143.21;66.38;71154.16;5110935;27;20215;-79
2023/07/21 05:44:24;;;;;;;18.95;7.72;;;;;;;-143.21;66.44;71130.38;5115565;28;20204;-79
2023/07/21 05:46:51;;;;;;;8.82;6.63;;;;;;;-143.21;64.71;71100.66;5115948;28;20195;-79
2023/07/21 05:49:18;;;;;;;17.60;7.55;;;;;;;-143.21;64.01;71082.81;5115304;27;20667;-79
2023/07/21 05:51:45;;;;;;;12.65;7.20;;;;;;;-143.21;63.55;71068.94;5070567;27;1173485;-80
2023/07/21 05:54:12;;;;;;;12.45;6.97;;;;;;;-143.21;63.45;71070.91;5115401;27;20210;-79
2023/07/21 05:56:39;;;;;;;14.20;7.13;;;;;;;-143.21;63.41;71072.88;5110115;27;20200;-79
2023/07/21 05:59:07;;;;;;;15.82;7.80;;;;;;;-143.21;63.88;71080.81;5115642;27;20227;-79
2023/07/21 06:01:36;;;;;;;10.63;7.45;;;;;;;-143.21;64.15;71090.72;5111954;27;20200;-78
2023/07/21 06:04:04;;;;;;;14.18;6.65;;;;;;;-143.21;63.70;71086.75;5110143;27;20207;-78
2023/07/21 06:06:31;;;;;;;11.73;7.13;;;;;;;-143.21;62.37;71055.06;5116987;27;20238;-78
2023/07/21 06:08:59;;;;;;;11.77;7.18;;;;;;;-143.21;62.12;71041.16;5111403;27;20216;-79
2023/07/21 06:11:26;;;;;;;12.95;6.72;;;;;;;-143.21;60.63;71031.25;5113858;27;20234;-80
2023/07/21 06:13:54;;;;;;;11.13;6.25;;;;;;;-143.21;60.09;71015.41;5112121;27;20603;-78
2023/07/21 06:16:23;;;;;;;14.73;6.25;;;;;;;-143.21;59.58;71011.44;5119189;27;20219;-78
2023/07/21 06:18:51;;;;;;;10.38;6.32;;;;;;;-143.21;60.55;70999.53;5113937;27;20266;-78
2023/07/21 06:21:19;;;;;;;13.02;6.97;;;;;;;-143.21;60.76;70993.59;5112438;27;20259;-77
2023/07/21 06:23:46;;;;;;;12.48;6.60;;;;;;;-143.21;60.50;70989.63;5113648;27;20260;-78
2023/07/21 06:26:13;;;;;;;13.20;6.40;;;;;;;-143.21;60.66;70979.72;5108016;27;20697;-79
2023/07/21 06:28:40;;;;;;;12.13;6.85;;;;;;;-143.21;60.02;70967.81;5108163;28;20204;-78
2023/07/21 06:31:07;;;;;;;14.57;6.50;;;;;;;-143.21;60.15;70967.81;5112765;27;20196;-78
2023/07/21 06:33:35;;;;;;;14.27;7.60;;;;;;;-143.21;60.06;70959.91;5110443;27;20657;-79
2023/07/21 06:36:02;;;;;;;18.10;6.70;;;;;;;-143.21;60.00;70959.91;5108191;28;20276;-78
2023/07/21 06:38:28;;;;;;;10.15;6.63;;;;;;;-143.21;59.49;70946.03;5115304;27;20228;-78
2023/07/21 06:40:55;;;;;;;10.55;6.35;;;;;;;-143.21;59.81;70932.13;5118619;27;20250;-78
2023/07/21 06:43:22;;;;;;;12.38;6.50;;;;;;;-143.21;57.29;70912.31;5114951;27;20204;-78
2023/07/21 06:45:49;;;;;;;18.27;6.20;;;;;;;-143.21;57.79;70890.50;5107925;27;20192;-78
2023/07/21 06:48:16;;;;;;;13.38;6.40;;;;;;;-143.21;56.45;70880.59;5110449;27;20204;-79
2023/07/21 06:50:44;;;;;;;10.00;6.20;;;;;;;-143.21;57.03;70874.66;5118940;27;20282;-78
2023/07/21 06:53:11;;;;;;;12.63;6.43;;;;;;;-143.21;57.37;70860.78;5111460;27;20666;-79
2023/07/21 06:55:39;;;;;;;11.07;6.13;;;;;;;-143.21;55.88;70852.84;5109586;28;20200;-78
2023/07/21 06:58:06;;;;;;;10.52;6.00;;;;;;;-143.21;56.85;70846.91;5115151;27;20191;-78
2023/07/21 07:00:32;;;;;;;10.75;6.20;;;;;;;-143.21;56.34;70846.91;5110256;27;20214;-78
2023/07/21 07:02:59;;;;;;;10.65;6.43;;;;;;;-143.21;56.31;70837.00;5116286;27;20203;-79
2023/07/21 07:05:26;;;;;;;17.48;5.97;;;;;;;-143.21;55.67;70829.06;5116148;27;20215;-79
2023/07/21 07:07:55;;;;;;;18.48;6.70;;;;;;;-143.21;55.90;70817.16;5110271;27;20196;-76
2023/07/21 07:10:21;;;;;;;10.95;6.25;;;;;;;-143.21;55.75;70815.19;5110033;28;20214;-77
2023/07/21 07:12:48;;;;;;;16.60;7.30;;;;;;;-143.21;55.49;70805.28;5113923;27;20287;-81
2023/07/21 07:15:15;;;;;;;13.00;7.07;;;;;;;-143.21;54.36;70795.38;5110989;28;20203;-82
2023/07/21 07:17:42;;;;;;;17.33;7.47;;;;;;;-143.21;54.43;70779.50;5110431;27;20986;-82
2023/07/21 07:20:11;;;;;;;13.38;7.07;;;;;;;-143.21;54.56;70767.63;5110791;28;20590;-81
2023/07/21 07:22:38;;;;;;;13.75;5.97;;;;;;;-143.21;53.50;70755.72;5111999;28;20231;-82
2023/07/21 07:25:07;;;;;;;11.93;5.80;;;;;;;-143.21;52.72;70733.91;5110709;28;20207;-82
2023/07/21 07:27:34;;;;;;;14.48;5.53;;;;;;;-143.21;51.89;70739.84;5111755;28;20200;-81
2023/07/21 07:30:01;;;;;;;8.50;5.38;;;;;;;-143.21;50.26;70725.97;5112153;28;20188;-81
2023/07/21 07:32:34;;;;;;;10.95;5.78;;;;;;;-143.21;51.56;70720.03;5112784;28;20211;-82
2023/07/21 07:35:12;;;;;;;12.98;6.05;;;;;;;-143.21;51.39;70716.06;5112514;28;20193;-83
2023/07/21 07:37:42;;;;;;;14.18;5.63;;;;;;;-143.21;50.16;70694.25;5112352;28;20192;-82
2023/07/21 07:40:30;;;;;;;11.45;6.15;;;;;;;-143.21;51.34;70688.31;5112017;28;20208;-82
2023/07/21 07:43:08;;;;;;;11.15;5.90;;;;;;;-143.21;49.65;70684.34;5112956;28;20207;-82
2023/07/21 07:45:44;;;;;;;12.95;5.95;;;;;;;-143.21;50.64;70672.47;5112457;28;20196;-83
2023/07/21 07:48:23;;;;;;;9.30;5.40;;;;;;;-143.21;50.96;70662.56;5112176;28;20184;-81
2023/07/21 07:51:04;;;;;;;21.77;7.07;;;;;;;-143.21;50.08;70650.66;5111669;28;20310;-81
2023/07/21 07:53:37;;;;;;;10.52;5.90;;;;;;;-143.21;49.10;70638.75;5111673;28;20183;-79
2023/07/21 07:56:13;;;;;;;10.93;6.03;;;;;;;-143.21;49.19;70636.78;5113610;27;20200;-82
2023/07/21 07:58:40;;;;;;;12.23;5.97;;;;;;;-143.21;48.97;70634.81;5132702;27;20215;-82
2023/07/21 08:01:07;;;;;;;17.70;6.30;;;;;;;-143.21;49.06;70630.84;5114049;28;20210;-83
2023/07/21 08:03:33;;;;;;;9.95;6.22;;;;;;;-143.21;48.78;70624.88;5111865;28;20206;-83
2023/07/21 08:06:00;;;;;;;17.45;6.82;;;;;;;-143.21;48.89;70616.97;5111381;28;20196;-82
2023/07/21 08:08:27;;;;;;;10.55;5.97;;;;;;;-143.21;48.76;70603.09;5111404;28;20200;-82
2023/07/21 08:10:55;;;;;;;10.07;5.65;;;;;;;-143.21;46.62;70587.22;5110808;28;20193;-82
2023/07/21 08:13:23;;;;;;;10.88;5.88;;;;;;;-143.21;46.32;70581.28;5111359;28;20196;-81
2023/07/21 08:15:50;;;;;;;11.13;5.90;;;;;;;-143.21;45.88;70575.34;5111713;28;20218;-81
2023/07/21 08:18:17;;;;;;;9.85;5.60;;;;;;;-143.21;45.11;70579.31;5111462;28;20200;-82
2023/07/21 08:20:44;;;;;;;12.60;5.35;;;;;;;-143.21;45.10;70579.31;5110866;28;20192;-82
2023/07/21 08:23:11;;;;;;;16.15;5.53;;;;;;;-143.21;46.01;70575.34;5111107;28;20288;-82
2023/07/21 08:25:37;;;;;;;10.80;5.80;;;;;;;-143.21;44.15;70571.38;5111322;28;20200;-82
2023/07/21 08:28:05;;;;;;;13.82;5.65;;;;;;;-143.21;44.33;70561.47;5130316;28;20207;-81
2023/07/21 08:30:33;;;;;;;11.52;5.20;;;;;;;-143.21;45.25;70561.47;5111436;28;20245;-82
2023/07/21 08:33:00;;;;;;;9.30;5.18;;;;;;;-143.21;43.01;70567.41;5111221;28;20218;-82
2023/07/21 08:35:28;;;;;;;10.23;4.97;;;;;;;-143.21;43.76;70567.41;5111360;28;20283;-82
2023/07/21 08:37:55;;;;;;;11.65;5.70;;;;;;;-143.21;44.25;70535.69;5111077;28;20678;-82
2023/07/21 08:40:23;;;;;;;12.55;5.55;;;;;;;-143.21;43.31;70519.84;5110843;28;20311;-82
2023/07/21 08:42:50;;;;;;;12.23;5.50;;;;;;;-143.21;43.56;70496.06;5114381;28;20287;-81
2023/07/21 08:45:19;;;;;;;15.45;6.05;;;;;;;-143.21;43.24;70490.09;5115031;28;20199;-82
2023/07/21 08:47:51;;;;;;;9.27;5.50;;;;;;;-143.21;42.13;70484.16;5106534;28;20245;-82
2023/07/21 08:50:19;;;;;;;10.90;5.78;;;;;;;-143.21;43.15;70474.25;5114775;28;20223;-82
2023/07/21 08:52:47;;;;;;;14.15;5.80;;;;;;;-143.21;42.39;70464.34;5115078;28;20248;-81
2023/07/21 08:55:14;;;;;;;9.18;6.10;;;;;;;-143.21;43.66;70480.19;5114927;28;20659;-82
2023/07/21 08:57:41;;;;;;;11.82;6.10;;;;;;;-143.21;43.38;70454.44;5114618;28;20192;-82
2023/07/21 09:00:10;;;;;;;12.80;5.90;;;;;;;-143.21;42.62;70438.56;5114501;28;20224;-82
2023/07/21 09:02:48;;;;;;;17.63;6.10;;;;;;;-143.21;42.73;70420.72;5114918;28;20661;-82
2023/07/21 09:05:18;;;;;;;13.57;6.40;;;;;;;-143.21;39.27;70420.72;5114664;28;20674;-81
2023/07/21 09:07:46;;;;;;;11.90;5.35;;;;;;;-143.21;43.22;70412.81;5114250;28;20570;-82
2023/07/21 09:10:13;;;;;;;12.82;6.22;;;;;;;-143.21;42.63;70402.91;5112575;28;20202;-81
2023/07/21 09:12:40;;;;;;;9.65;5.47;;;;;;;-143.21;42.83;70389.03;5114518;28;20187;-81
2023/07/21 09:15:10;;;;;;;12.65;5.78;;;;;;;-143.21;42.54;70375.16;5114052;27;20214;-81
2023/07/21 09:17:42;;;;;;;10.85;6.07;;;;;;;-143.21;41.87;70363.25;5114671;28;20192;-82
2023/07/21 09:20:12;;;;;;;13.63;6.40;;;;;;;-143.21;41.20;70349.38;5110666;28;20285;-82
2023/07/21 09:22:40;;;;;;;11.20;6.00;;;;;;;-143.21;40.73;70345.41;5111624;28;20235;-82
2023/07/21 09:25:08;;;;;;;13.75;6.10;;;;;;;-143.21;42.17;70333.53;5113407;28;20279;-83
2023/07/21 09:27:39;;;;;;;14.88;5.95;;;;;;;-143.21;41.51;70319.66;5114434;28;20218;-82
2023/07/21 09:30:07;;;;;;;11.13;5.70;;;;;;;-143.21;41.45;70295.88;5113455;27;20200;-82
2023/07/21 09:32:40;;;;;;;14.43;6.53;;;;;;;-143.21;40.95;70303.78;5094428;28;20284;-81
2023/07/21 09:35:10;;;;;;;17.00;6.18;;;;;;;-143.21;39.81;70315.69;5094845;28;20204;-81
2023/07/21 09:37:39;;;;;;;11.50;5.82;;;;;;;-143.21;41.02;70301.81;5114250;28;20196;-81
2023/07/21 09:40:10;;;;;;;10.85;5.70;;;;;;;-143.21;40.54;70268.13;5113212;28;20332;-81
2023/07/21 09:42:38;;;;;;;11.52;5.68;;;;;;;-143.21;40.45;70262.19;5113534;28;20759;-81
2023/07/21 09:45:05;;;;;;;13.60;6.22;;;;;;;-143.21;40.34;70266.13;5114062;28;20202;-81
2023/07/21 09:47:32;;;;;;;11.43;5.93;;;;;;;-143.21;39.17;70244.34;5113887;28;20188;-82
2023/07/21 09:50:00;;;;;;;12.82;5.68;;;;;;;-143.21;39.29;70214.59;5113820;28;20260;-82
2023/07/21 09:52:35;;;;;;;14.70;6.13;;;;;;;-143.21;38.51;70218.56;5112732;28;20250;-81
2023/07/21 09:55:09;;;;;;;10.55;6.25;;;;;;;-143.21;39.92;70214.59;5112681;28;20235;-81
2023/07/21 09:57:41;;;;;;;12.90;6.20;;;;;;;-143.21;39.35;70190.81;5113644;28;20265;-80
2023/07/21 10:00:14;;;;;;;16.80;6.43;;;;;;;-143.21;38.07;70220.56;5112794;28;20231;-80
2023/07/21 10:02:41;;;;;;;10.40;5.82;;;;;;;-143.21;39.65;70182.91;5113567;28;20204;-82
2023/07/21 10:05:11;;;;;;;10.02;6.05;;;;;;;-143.21;37.76;70165.06;5113587;28;20661;-82
2023/07/21 10:07:40;;;;;;;13.45;5.88;;;;;;;-143.21;37.70;70167.03;5113690;28;20828;-82
2023/07/21 10:10:10;;;;;;;9.43;5.80;;;;;;;-143.21;38.57;70155.16;5113382;28;20720;-81
2023/07/21 10:12:49;;;;;;;13.70;6.22;;;;;;;-143.21;38.50;70155.16;5113716;28;20189;-82
2023/07/21 10:15:17;;;;;;;9.88;5.97;;;;;;;-143.21;36.97;70159.13;5113063;28;20199;-83
2023/07/21 10:17:55;;;;;;;11.57;6.15;;;;;;;-143.21;38.12;70149.19;5112426;28;20659;-82
2023/07/21 10:20:22;;;;;;;12.90;6.00;;;;;;;-143.21;37.46;70129.38;5113135;28;20261;-82
2023/07/21 10:22:56;;;;;;;15.57;6.45;;;;;;;-143.21;38.21;70095.69;5112773;28;20192;-82
2023/07/21 10:25:25;;;;;;;11.25;6.20;;;;;;;-143.21;37.43;70073.91;5103838;28;20726;-80
2023/07/21 10:28:03;;;;;;;14.30;6.00;;;;;;;-143.21;36.82;70042.19;5112334;28;20200;-81
2023/07/21 10:30:30;;;;;;;14.60;6.07;;;;;;;-143.21;36.48;70020.38;5112114;28;20202;-81
2023/07/21 10:33:11;;;;;;;12.27;5.90;;;;;;;-143.21;36.38;69998.59;5107350;28;20207;-84
2023/07/21 10:35:38;;;;;;;12.27;5.93;;;;;;;-143.21;36.81;69968.84;5112044;28;20920;-82
2023/07/21 10:38:24;;;;;;;15.68;6.05;;;;;;;-143.21;35.29;69954.97;5112201;28;20257;-82
2023/07/21 10:40:52;;;;;;;14.20;6.05;;;;;;;-143.21;35.33;69964.91;5112116;28;20227;-82
2023/07/21 10:43:19;;;;;;;10.45;5.90;;;;;;;-143.21;35.51;69982.72;5111900;28;20208;-82
2023/07/21 10:45:53;;;;;;;13.10;5.80;;;;;;;-143.21;35.76;70004.53;5112247;28;20196;-82
2023/07/21 10:48:24;;;;;;;15.77;6.05;;;;;;;-143.21;35.95;70014.44;5112485;28;20202;-82
2023/07/21 10:50:56;;;;;;;20.70;6.00;;;;;;;-143.21;35.37;70044.16;5107519;28;20232;-82
2023/07/21 10:53:23;;;;;;;13.85;6.30;;;;;;;-143.21;36.22;70042.19;5112088;28;20188;-82
2023/07/21 10:55:53;;;;;;;15.20;6.32;;;;;;;-143.21;35.95;69992.63;5111646;28;20200;-81
2023/07/21 10:58:20;;;;;;;16.65;5.97;;;;;;;-143.21;35.53;69956.97;5112205;28;20196;-81
2023/07/21 11:00:48;;;;;;;20.17;7.10;;;;;;;-143.21;35.75;69927.25;5126267;27;20582;-81
2023/07/21 11:03:16;;;;;;;18.05;6.68;;;;;;;-143.21;35.12;69873.72;5114166;27;20229;-82
2023/07/21 11:05:43;;;;;;;18.27;5.88;;;;;;;-143.21;33.85;69873.72;5111476;28;20245;-82
2023/07/21 11:08:25;;;;;;;14.48;6.70;;;;;;;-143.21;34.68;69875.72;5111915;28;20203;-82
2023/07/21 11:10:53;;;;;;;14.10;6.10;;;;;;;-143.21;34.35;69849.94;5111630;28;20210;-82
2023/07/21 11:13:21;;;;;;;16.13;6.38;;;;;;;-143.21;33.90;69855.91;5112286;28;20249;-81
2023/07/21 11:15:52;;;;;;;14.80;5.85;;;;;;;-143.21;34.14;69925.25;5112111;28;20192;-82